createdAt,value
2018-04-27T00:00:30.808Z,11.70
2018-04-27T00:02:59.175Z,12.87
2018-04-27T00:05:27.488Z,12.00
2018-04-27T00:07:55.835Z,11.52
2018-04-27T00:10:24.162Z,12.48
2018-04-27T00:12:52.512Z,10.38
2018-04-27T00:15:20.832Z,12.20
2018-04-27T00:17:49.180Z,11.75
2018-04-27T00:20:17.508Z,11.60
2018-04-27T00:22:45.851Z,11.75
2018-04-27T00:25:14.180Z,12.43
2018-04-27T00:27:42.530Z,12.05
2018-04-27T00:30:10.852Z,11.63
2018-04-27T00:32:39.196Z,11.40
2018-04-27T00:35:07.522Z,10.98
2018-04-27T00:37:35.869Z,11.98
2018-04-27T00:40:04.192Z,11.70
2018-04-27T00:42:32.542Z,11.55
2018-04-27T00:45:00.870Z,11.23
2018-04-27T00:47:29.215Z,10.85
2018-04-27T00:49:57.550Z,10.32
2018-04-27T00:52:25.897Z,11.60
2018-04-27T00:54:54.229Z,11.27
2018-04-27T00:57:22.572Z,10.20
2018-04-27T00:59:50.904Z,10.63
2018-04-27T01:02:19.253Z,10.60
2018-04-27T01:04:47.579Z,10.85
2018-04-27T01:07:15.927Z,10.77
2018-04-27T01:09:44.253Z,10.10
2018-04-27T01:12:12.596Z,10.02
2018-04-27T01:14:40.916Z,9.95
2018-04-27T01:17:09.252Z,9.25
2018-04-27T01:19:37.575Z,10.60
2018-04-27T01:22:05.921Z,9.98
2018-04-27T01:24:34.243Z,9.35
2018-04-27T01:27:02.580Z,10.25
2018-04-27T01:29:30.904Z,9.50
2018-04-27T01:31:59.220Z,9.90
2018-04-27T01:34:27.565Z,9.73
2018-04-27T01:36:55.888Z,11.23
2018-04-27T01:39:24.233Z,8.68
2018-04-27T01:41:52.553Z,9.20
2018-04-27T01:44:20.901Z,10.60
2018-04-27T01:46:49.227Z,9.43
2018-04-27T01:49:17.565Z,9.77
2018-04-27T01:51:45.883Z,9.63
2018-04-27T01:54:14.229Z,9.40
2018-04-27T01:56:42.561Z,10.23
2018-04-27T01:59:10.906Z,9.98
2018-04-27T02:01:39.215Z,9.65
2018-04-27T02:04:07.569Z,10.75
2018-04-27T02:06:35.892Z,10.55
2018-04-27T02:09:04.246Z,10.30
2018-04-27T02:11:32.573Z,10.10
2018-04-27T02:14:00.912Z,11.10
2018-04-27T02:16:29.572Z,10.77
2018-04-27T02:18:57.904Z,10.00
2018-04-27T02:21:26.228Z,10.50
2018-04-27T02:23:54.581Z,10.80
2018-04-27T02:26:22.900Z,10.88
2018-04-27T02:28:51.245Z,11.05
2018-04-27T02:31:19.575Z,11.43
2018-04-27T02:33:47.917Z,11.18
2018-04-27T02:36:16.240Z,10.07
2018-04-27T02:38:44.595Z,10.60
2018-04-27T02:41:12.912Z,10.52
2018-04-27T02:43:41.256Z,11.52
2018-04-27T02:46:09.581Z,10.07
2018-04-27T02:48:37.929Z,10.13
2018-04-27T02:51:06.256Z,11.10
2018-04-27T02:53:34.603Z,10.25
2018-04-27T02:56:02.928Z,10.45
2018-04-27T02:58:31.284Z,10.75
2018-04-27T03:00:59.608Z,10.75
2018-04-27T03:03:27.952Z,10.13
2018-04-27T03:05:56.330Z,9.45
2018-04-27T03:08:24.672Z,9.23
2018-04-27T03:10:52.989Z,11.18
2018-04-27T03:13:21.338Z,9.98
2018-04-27T03:15:49.661Z,10.57
2018-04-27T03:18:18.009Z,10.52
2018-04-27T03:20:46.345Z,11.25
2018-04-27T03:23:14.692Z,11.10
2018-04-27T03:25:43.021Z,11.38
2018-04-27T03:28:11.372Z,11.30
2018-04-27T03:30:39.701Z,11.63
2018-04-27T03:33:08.022Z,13.13
2018-04-27T03:35:36.373Z,12.13
2018-04-27T03:38:04.697Z,13.00
2018-04-27T03:40:33.047Z,12.73
2018-04-27T03:43:01.377Z,11.95
2018-04-27T03:45:29.740Z,13.35
2018-04-27T03:47:58.057Z,13.15
2018-04-27T03:50:26.397Z,11.63
2018-04-27T03:52:54.720Z,14.05
2018-04-27T03:55:23.064Z,13.48
2018-04-27T03:57:51.391Z,13.05
2018-04-27T04:00:31.720Z,12.75
2018-04-27T04:03:11.949Z,12.65
2018-04-27T04:05:40.291Z,12.10
2018-04-27T04:08:08.661Z,14.13
2018-04-27T04:10:36.969Z,12.20
2018-04-27T04:13:05.297Z,12.98
2018-04-27T04:15:33.649Z,15.38
2018-04-27T04:18:01.972Z,14.65
2018-04-27T04:20:30.312Z,14.65
2018-04-27T04:22:58.645Z,13.85
2018-04-27T04:25:26.998Z,15.02
2018-04-27T04:27:55.316Z,12.73
2018-04-27T04:30:23.664Z,14.15
2018-04-27T04:32:51.992Z,15.23
2018-04-27T04:35:20.332Z,13.95
2018-04-27T04:37:48.664Z,12.95
2018-04-27T04:40:17.012Z,13.23
2018-04-27T04:42:45.344Z,14.40
2018-04-27T04:45:13.701Z,12.60
2018-04-27T04:47:42.016Z,13.18
2018-04-27T04:50:10.369Z,13.10
2018-04-27T04:52:38.716Z,12.53
2018-04-27T04:55:07.040Z,15.07
2018-04-27T04:57:35.380Z,13.70
2018-04-27T05:00:03.728Z,14.40
2018-04-27T05:02:32.060Z,13.13
2018-04-27T05:05:00.412Z,14.67
2018-04-27T05:07:29.708Z,15.65
2018-04-27T05:09:58.060Z,14.80
2018-04-27T05:12:26.388Z,14.77
2018-04-27T05:14:54.740Z,14.13
2018-04-27T05:17:23.069Z,14.63
2018-04-27T05:19:54.783Z,15.55
2018-04-27T05:22:23.112Z,14.60
2018-04-27T05:24:51.453Z,14.32
2018-04-27T05:27:19.783Z,13.73
2018-04-27T05:29:49.287Z,16.17
2018-04-27T05:32:17.532Z,14.60
2018-04-27T05:34:45.879Z,14.63
2018-04-27T05:37:14.213Z,11.90
2018-04-27T05:39:42.576Z,13.30
2018-04-27T05:42:10.914Z,12.70
2018-04-27T05:44:39.274Z,13.00
2018-04-27T05:47:07.609Z,11.97
2018-04-27T05:49:35.964Z,11.77
2018-04-27T05:52:04.303Z,11.90
2018-04-27T05:54:32.778Z,11.60
2018-04-27T05:57:01.089Z,11.87
2018-04-27T05:59:29.420Z,11.88
2018-04-27T06:01:57.781Z,10.60
2018-04-27T06:04:26.117Z,11.53
2018-04-27T06:06:55.400Z,11.00
2018-04-27T06:09:24.551Z,11.53
2018-04-27T06:11:52.921Z,11.03
2018-04-27T06:14:21.254Z,11.53
2018-04-27T06:16:49.608Z,11.30
2018-04-27T06:19:17.945Z,11.10
2018-04-27T06:21:46.304Z,11.33
2018-04-27T06:24:14.640Z,10.70
2018-04-27T06:26:43.001Z,12.17
2018-04-27T06:29:11.568Z,9.95
2018-04-27T06:31:39.939Z,11.32
2018-04-27T06:34:08.269Z,10.00
2018-04-27T06:36:36.632Z,10.47
2018-04-27T06:39:04.965Z,9.45
2018-04-27T06:41:33.329Z,10.20
2018-04-27T06:44:01.660Z,9.95
2018-04-27T06:46:30.527Z,9.40
2018-04-27T06:48:59.807Z,8.82
2018-04-27T06:51:28.158Z,8.47
2018-04-27T06:53:56.487Z,10.70
2018-04-27T06:56:24.846Z,8.83
2018-04-27T06:58:53.176Z,8.77
2018-04-27T07:01:21.533Z,9.98
2018-04-27T07:03:49.864Z,8.20
2018-04-27T07:06:18.213Z,8.77
2018-04-27T07:08:46.536Z,7.90
2018-04-27T07:11:14.897Z,7.97
2018-04-27T07:13:43.213Z,7.10
2018-04-27T07:16:11.565Z,7.82
2018-04-27T07:18:39.898Z,8.25
2018-04-27T07:21:08.252Z,8.00
2018-04-27T07:23:36.585Z,7.20
2018-04-27T07:26:04.928Z,8.07
2018-04-27T07:28:34.153Z,8.70
2018-04-27T07:31:02.500Z,8.03
2018-04-27T07:33:30.834Z,9.03
2018-04-27T07:35:59.180Z,8.30
2018-04-27T07:38:27.504Z,7.00
2018-04-27T07:40:55.857Z,8.07
2018-04-27T07:43:24.179Z,7.30
2018-04-27T07:45:52.528Z,8.30
2018-04-27T07:48:20.874Z,8.63
2018-04-27T07:50:49.216Z,7.07
2018-04-27T07:53:17.548Z,7.00
2018-04-27T07:55:45.902Z,8.02
2018-04-27T07:58:14.245Z,8.63
2018-04-27T08:00:42.609Z,7.13
2018-04-27T08:03:10.940Z,6.82
2018-04-27T08:05:39.269Z,7.30
2018-04-27T08:08:08.514Z,8.77
2018-04-27T08:10:36.845Z,7.83
2018-04-27T08:13:05.222Z,8.60
2018-04-27T08:15:33.567Z,6.47
2018-04-27T08:18:01.917Z,7.80
2018-04-27T08:20:30.240Z,7.55
2018-04-27T08:22:59.516Z,10.00
2018-04-27T08:25:27.896Z,8.25
2018-04-27T08:27:56.242Z,8.27
2018-04-27T08:30:24.564Z,8.20
2018-04-27T08:32:52.945Z,7.80
2018-04-27T08:35:21.284Z,7.90
2018-04-27T08:37:49.627Z,7.80
2018-04-27T08:40:17.952Z,7.77
2018-04-27T08:42:46.305Z,7.32
2018-04-27T08:45:14.624Z,6.95
2018-04-27T08:47:42.980Z,7.40
2018-04-27T08:50:11.309Z,8.37
2018-04-27T08:52:39.656Z,8.13
2018-04-27T08:55:07.987Z,7.78
2018-04-27T08:57:36.340Z,6.60
2018-04-27T09:00:04.673Z,7.27
2018-04-27T09:02:33.026Z,6.87
2018-04-27T09:05:01.352Z,6.97
2018-04-27T09:07:30.625Z,7.00
2018-04-27T09:09:58.973Z,6.50
2018-04-27T09:12:27.317Z,6.37
2018-04-27T09:14:55.648Z,6.65
2018-04-27T09:17:24.013Z,7.18
2018-04-27T09:19:52.405Z,6.60
2018-04-27T09:22:20.762Z,5.70
2018-04-27T09:24:49.088Z,6.33
2018-04-27T09:27:18.337Z,5.93
2018-04-27T09:29:46.668Z,5.47
2018-04-27T09:32:15.198Z,6.33
2018-04-27T09:34:43.487Z,5.63
2018-04-27T09:37:11.842Z,5.90
2018-04-27T09:39:40.177Z,6.03
2018-04-27T09:42:08.524Z,6.40
2018-04-27T09:44:36.852Z,4.90
2018-04-27T09:47:05.195Z,2.80
2018-04-27T09:49:33.517Z,1.90
2018-04-27T09:52:01.862Z,2.83
2018-04-27T09:54:30.191Z,2.10
2018-04-27T09:56:58.545Z,2.83
2018-04-27T09:59:26.870Z,2.33
2018-04-27T10:01:55.221Z,1.70
2018-04-27T10:04:23.543Z,1.93
2018-04-27T10:06:51.865Z,1.83
2018-04-27T10:09:20.212Z,2.50
2018-04-27T10:11:48.545Z,2.60
2018-04-27T10:14:16.889Z,2.30
2018-04-27T10:16:45.212Z,2.10
2018-04-27T10:19:13.557Z,2.03
2018-04-27T10:21:41.882Z,2.40
2018-04-27T10:24:10.225Z,1.77
2018-04-27T10:26:38.553Z,1.97
2018-04-27T10:29:06.905Z,2.17
2018-04-27T10:31:35.221Z,2.33
2018-04-27T10:34:03.565Z,2.47
2018-04-27T10:36:32.009Z,2.37
2018-04-27T10:39:00.262Z,2.80
2018-04-27T10:41:28.584Z,2.70
2018-04-27T10:43:56.932Z,2.77
2018-04-27T10:46:25.256Z,2.10
2018-04-27T10:48:53.604Z,2.80
2018-04-27T10:51:21.924Z,3.97
2018-04-27T10:53:50.266Z,2.50
2018-04-27T10:56:18.588Z,2.30
2018-04-27T10:58:46.928Z,3.00
2018-04-27T11:01:15.253Z,2.73
2018-04-27T11:03:43.600Z,3.30
2018-04-27T11:06:11.929Z,2.47
2018-04-27T11:08:40.318Z,3.00
2018-04-27T11:11:08.601Z,2.53
2018-04-27T11:13:36.941Z,3.00
2018-04-27T11:16:05.256Z,3.13
2018-04-27T11:18:33.600Z,3.30
2018-04-27T11:21:01.921Z,2.67
2018-04-27T11:23:30.260Z,2.30
2018-04-27T11:25:58.588Z,2.50
2018-04-27T11:28:26.928Z,2.23
2018-04-27T11:30:55.249Z,1.87
2018-04-27T11:33:23.592Z,1.90
2018-04-27T11:35:51.917Z,1.93
2018-04-27T11:38:20.261Z,1.70
2018-04-27T11:40:48.579Z,1.53
2018-04-27T11:43:16.921Z,1.60
2018-04-27T11:45:45.235Z,1.60
2018-04-27T11:48:13.583Z,1.63
2018-04-27T11:51:11.412Z,1.77
2018-04-27T11:53:39.756Z,1.47
2018-04-27T11:56:08.175Z,1.40
2018-04-27T11:58:36.426Z,1.50
2018-04-27T12:01:04.749Z,1.50
2018-04-27T12:03:33.094Z,1.67
2018-04-27T12:06:01.417Z,1.60
2018-04-27T12:08:29.793Z,1.70
2018-04-27T12:10:58.120Z,1.50
2018-04-27T12:13:26.914Z,1.40
2018-04-27T12:15:55.301Z,1.60
2018-04-27T12:18:24.331Z,1.90
2018-04-27T12:20:52.731Z,1.43
2018-04-27T12:23:21.077Z,1.70
2018-04-27T12:25:49.407Z,1.63
2018-04-27T12:28:17.762Z,1.60
2018-04-27T12:30:46.085Z,1.40
2018-04-27T12:33:14.411Z,2.23
2018-04-27T12:35:42.747Z,1.60
2018-04-27T12:38:11.082Z,2.47
2018-04-27T12:40:39.424Z,1.55
2018-04-27T12:43:07.749Z,1.80
2018-04-27T12:45:36.094Z,2.10
2018-04-27T12:48:04.427Z,2.30
2018-04-27T12:50:32.772Z,1.87
2018-04-27T12:53:01.100Z,1.98
2018-04-27T12:55:29.456Z,3.10
2018-04-27T12:57:57.785Z,2.40
2018-04-27T13:00:26.132Z,1.77
2018-04-27T13:02:54.451Z,2.60
2018-04-27T13:05:22.792Z,1.90
2018-04-27T13:07:51.164Z,2.00
2018-04-27T13:10:19.463Z,2.00
2018-04-27T13:12:47.787Z,2.07
2018-04-27T13:15:16.132Z,2.35
2018-04-27T13:17:44.456Z,2.13
2018-04-27T13:20:12.796Z,1.77
2018-04-27T13:22:41.120Z,1.83
2018-04-27T13:25:09.461Z,2.30
2018-04-27T13:27:37.785Z,2.33
2018-04-27T13:30:06.147Z,1.50
2018-04-27T13:32:34.460Z,2.20
2018-04-27T13:35:02.840Z,1.93
2018-04-27T13:37:31.156Z,2.60
2018-04-27T13:39:59.559Z,2.60
2018-04-27T13:42:28.912Z,2.80
2018-04-27T13:44:57.264Z,2.30
2018-04-27T13:47:25.593Z,2.17
2018-04-27T13:49:53.939Z,2.33
2018-04-27T13:52:22.323Z,2.43
2018-04-27T13:54:50.785Z,1.80
2018-04-27T13:57:19.226Z,1.93
2018-04-27T13:59:47.568Z,1.87
2018-04-27T14:02:15.898Z,1.93
2018-04-27T14:04:44.241Z,2.27
2018-04-27T14:07:12.573Z,3.57
2018-04-27T14:09:40.923Z,2.07
2018-04-27T14:12:09.253Z,3.28
2018-04-27T14:14:37.596Z,1.73
2018-04-27T14:17:05.925Z,1.83
2018-04-27T14:19:34.261Z,1.30
2018-04-27T14:22:02.593Z,1.73
2018-04-27T14:24:30.940Z,1.70
2018-04-27T14:26:59.261Z,1.60
2018-04-27T14:29:27.599Z,1.33
2018-04-27T14:31:55.998Z,1.23
2018-04-27T14:34:24.248Z,2.47
2018-04-27T14:36:52.593Z,1.40
2018-04-27T14:39:20.916Z,1.53
2018-04-27T14:41:49.261Z,1.70
2018-04-27T14:44:17.592Z,2.25
2018-04-27T14:46:45.933Z,2.70
2018-04-27T14:49:14.261Z,2.00
2018-04-27T14:51:42.600Z,1.17
2018-04-27T14:54:10.933Z,1.55
2018-04-27T14:56:39.303Z,1.50
2018-04-27T14:59:07.613Z,2.10
2018-04-27T15:01:36.006Z,1.10
2018-04-27T15:04:04.276Z,2.17
2018-04-27T15:06:32.628Z,1.50
2018-04-27T15:09:00.948Z,2.53
2018-04-27T15:11:29.292Z,1.93
2018-04-27T15:13:57.616Z,1.45
2018-04-27T15:16:25.976Z,1.30
2018-04-27T15:18:54.300Z,1.70
2018-04-27T15:21:22.644Z,2.37
2018-04-27T15:23:50.973Z,2.30
2018-04-27T15:26:19.316Z,1.50
2018-04-27T15:28:47.653Z,1.70
2018-04-27T15:31:16.004Z,1.98
2018-04-27T15:33:44.372Z,1.57
2018-04-27T15:36:12.817Z,1.23
2018-04-27T15:38:41.081Z,1.80
2018-04-27T15:41:09.420Z,2.40
2018-04-27T15:43:37.746Z,1.67
2018-04-27T15:46:06.089Z,1.98
2018-04-27T15:48:34.413Z,1.50
2018-04-27T15:51:02.761Z,1.60
2018-04-27T15:53:31.084Z,1.83
2018-04-27T15:55:59.429Z,1.77
2018-04-27T15:58:27.752Z,1.80
2018-04-27T16:00:56.105Z,1.80
2018-04-27T16:03:24.847Z,1.53
2018-04-27T16:05:53.288Z,2.20
2018-04-27T16:08:21.613Z,1.90
2018-04-27T16:10:49.960Z,1.73
2018-04-27T16:16:16.661Z,1.43
2018-04-27T16:18:44.984Z,1.90
2018-04-27T16:21:13.384Z,2.50
2018-04-27T16:23:41.660Z,2.17
2018-04-27T16:26:10.004Z,1.58
2018-04-27T16:28:38.328Z,2.10
2018-04-27T16:31:06.668Z,1.90
2018-04-27T16:33:34.996Z,1.95
2018-04-27T16:36:04.310Z,1.87
2018-04-27T16:38:32.625Z,2.13
2018-04-27T16:41:00.977Z,2.93
2018-04-27T16:43:29.304Z,2.07
2018-04-27T16:45:57.644Z,2.13
2018-04-27T16:48:25.980Z,2.67
2018-04-27T16:50:54.325Z,1.70
2018-04-27T16:53:22.646Z,2.00
2018-04-27T16:55:51.009Z,4.23
2018-04-27T16:58:19.340Z,2.57
2018-04-27T17:00:47.671Z,3.33
2018-04-27T17:03:16.020Z,4.15
2018-04-27T17:05:44.354Z,2.97
2018-04-27T17:08:12.704Z,2.10
2018-04-27T17:10:41.033Z,2.10
2018-04-27T17:13:09.394Z,1.70
2018-04-27T17:15:38.553Z,1.67
2018-04-27T17:18:06.891Z,2.00
2018-04-27T17:20:35.211Z,2.80
2018-04-27T17:23:03.552Z,2.83
2018-04-27T17:25:31.876Z,1.90
2018-04-27T17:28:00.216Z,2.70
2018-04-27T17:30:28.541Z,1.93
2018-04-27T17:32:56.892Z,2.60
2018-04-27T17:35:25.295Z,1.93
2018-04-27T17:37:53.557Z,2.50
2018-04-27T17:40:21.947Z,1.90
2018-04-27T17:42:50.220Z,2.58
2018-04-27T17:45:18.553Z,2.05
2018-04-27T17:47:46.900Z,2.90
2018-04-27T17:50:15.224Z,1.90
2018-04-27T17:52:43.569Z,2.30
2018-04-27T17:55:11.893Z,2.57
2018-04-27T17:57:40.235Z,2.30
2018-04-27T18:00:08.560Z,2.20
2018-04-27T18:02:36.908Z,2.00
2018-04-27T18:05:05.235Z,1.83
2018-04-27T18:07:33.621Z,2.93
2018-04-27T18:10:01.906Z,3.17
2018-04-27T18:12:30.741Z,2.17
2018-04-27T18:14:59.072Z,2.50
2018-04-27T18:17:27.412Z,3.00
2018-04-27T18:19:55.732Z,2.27
2018-04-27T18:22:24.078Z,2.70
2018-04-27T18:24:52.401Z,2.60
2018-04-27T18:27:21.752Z,2.55
2018-04-27T18:29:50.126Z,3.30
2018-04-27T18:32:19.301Z,2.62
2018-04-27T18:34:47.631Z,1.77
2018-04-27T18:37:15.977Z,2.13
2018-04-27T18:39:44.301Z,3.00
2018-04-27T18:42:18.524Z,2.35
2018-04-27T18:44:46.850Z,2.10
2018-04-27T18:47:15.188Z,2.07
2018-04-27T18:49:43.517Z,2.40
2018-04-27T18:52:11.867Z,1.80
2018-04-27T18:54:40.820Z,2.42
2018-04-27T18:57:09.164Z,2.53
2018-04-27T18:59:37.492Z,2.00
2018-04-27T19:02:05.861Z,3.08
2018-04-27T19:04:34.188Z,2.95
2018-04-27T19:07:02.515Z,2.30
2018-04-27T19:09:30.864Z,2.67
2018-04-27T19:11:59.200Z,2.60
2018-04-27T19:14:27.548Z,3.08
2018-04-27T19:16:55.860Z,2.10
2018-04-27T19:19:24.212Z,3.20
2018-04-27T19:21:52.532Z,2.67
2018-04-27T19:24:20.887Z,3.00
2018-04-27T19:26:49.218Z,2.93
2018-04-27T19:29:17.570Z,3.10
2018-04-27T19:31:45.902Z,2.90
2018-04-27T19:34:14.291Z,2.92
2018-04-27T19:36:42.612Z,2.70
2018-04-27T19:39:10.969Z,3.00
2018-04-27T19:41:39.298Z,3.10
2018-04-27T19:44:07.643Z,2.60
2018-04-27T19:46:35.972Z,2.85
2018-04-27T19:49:04.320Z,3.00
2018-04-27T19:51:32.656Z,2.60
2018-04-27T19:54:01.008Z,3.53
2018-04-27T19:56:29.352Z,1.80
2018-04-27T19:58:57.735Z,2.67
2018-04-27T20:01:26.048Z,2.40
2018-04-27T20:03:54.380Z,3.10
2018-04-27T20:06:22.715Z,3.23
2018-04-27T20:08:51.055Z,3.53
2018-04-27T20:11:19.462Z,2.57
2018-04-27T20:13:47.778Z,3.20
2018-04-27T20:16:27.876Z,2.97
2018-04-27T20:18:56.224Z,3.03
2018-04-27T20:21:24.545Z,2.00
2018-04-27T20:23:52.892Z,2.67
2018-04-27T20:26:21.213Z,2.90
2018-04-27T20:28:50.506Z,2.50
2018-04-27T20:31:18.845Z,2.50
2018-04-27T20:33:47.188Z,3.33
2018-04-27T20:36:15.512Z,2.87
2018-04-27T20:38:43.871Z,3.10
2018-04-27T20:41:13.184Z,2.70
2018-04-27T20:43:43.049Z,3.13
2018-04-27T20:46:11.377Z,2.65
2018-04-27T20:48:39.728Z,2.97
2018-04-27T20:51:08.859Z,3.58
2018-04-27T20:53:51.945Z,3.80
2018-04-27T20:56:20.268Z,3.43
2018-04-27T20:58:48.611Z,3.20
2018-04-27T21:01:16.935Z,3.10
2018-04-27T21:03:45.297Z,2.90
2018-04-27T21:06:14.215Z,4.22
2018-04-27T21:08:42.560Z,3.37
2018-04-27T21:11:10.885Z,3.50
2018-04-27T21:13:39.228Z,3.30
2018-04-27T21:16:07.558Z,3.87
2018-04-27T21:18:35.904Z,3.30
2018-04-27T21:21:04.236Z,3.67
2018-04-27T21:23:32.589Z,3.83
2018-04-27T21:26:00.925Z,3.73
2018-04-27T21:28:30.789Z,3.13
2018-04-27T21:30:59.912Z,3.53
2018-04-27T21:33:28.232Z,2.77
2018-04-27T21:35:57.177Z,3.63
2018-04-27T21:38:40.395Z,5.80
2018-04-27T21:41:23.751Z,3.50
2018-04-27T21:43:52.849Z,4.25
2018-04-27T21:46:25.133Z,2.93
2018-04-27T21:48:53.469Z,3.62
2018-04-27T21:51:41.217Z,3.27
2018-04-27T21:54:10.465Z,3.33
2018-04-27T21:56:47.336Z,2.90
2018-04-27T21:59:19.156Z,2.40
2018-04-27T22:01:47.480Z,2.93
2018-04-27T22:04:15.825Z,2.55
2018-04-27T22:06:44.144Z,2.73
2018-04-27T22:09:12.496Z,2.80
2018-04-27T22:11:49.540Z,2.90
2018-04-27T22:14:23.221Z,2.92
2018-04-27T22:16:52.328Z,2.53
2018-04-27T22:19:20.685Z,3.55
2018-04-27T22:21:51.731Z,2.90
2018-04-27T22:24:22.793Z,2.40
2018-04-27T22:27:06.157Z,2.87
2018-04-27T22:29:35.324Z,2.83
2018-04-27T22:32:23.252Z,2.90
2018-04-27T22:34:54.300Z,2.33
2018-04-27T22:37:22.615Z,3.30
2018-04-27T22:42:56.586Z,2.90
2018-04-27T22:45:25.680Z,3.28
2018-04-27T22:51:14.628Z,3.07
2018-04-27T22:53:48.513Z,3.08
2018-04-27T22:59:31.436Z,2.80
2018-04-27T23:04:59.541Z,3.12
2018-04-27T23:07:37.001Z,3.30
2018-04-27T23:10:07.108Z,3.47
2018-04-27T23:12:35.441Z,2.90
2018-04-27T23:15:05.465Z,3.45
2018-04-27T23:17:33.817Z,2.70
2018-04-27T23:20:03.732Z,3.10
2018-04-27T23:22:38.483Z,3.10
2018-04-27T23:25:23.436Z,3.08
2018-04-27T23:27:51.764Z,2.80
2018-04-27T23:30:22.649Z,3.70
2018-04-27T23:32:50.981Z,2.37
2018-04-27T23:35:19.321Z,2.83
2018-04-27T23:37:47.661Z,3.35
2018-04-27T23:40:16.004Z,3.10
2018-04-27T23:42:44.332Z,2.95
2018-04-27T23:45:15.217Z,3.90
2018-04-27T23:47:43.535Z,3.60
2018-04-27T23:50:22.449Z,3.15
2018-04-27T23:52:50.776Z,3.22
2018-04-27T23:55:19.132Z,3.17
2018-04-27T23:57:47.465Z,3.67
